createdAt,value
2018-01-15T00:01:01.903Z,96.39
2018-01-15T00:03:29.423Z,96.36
2018-01-15T00:05:56.944Z,96.22
2018-01-15T00:08:24.471Z,95.86
2018-01-15T00:10:51.990Z,95.84
2018-01-15T00:13:19.506Z,95.98
2018-01-15T00:15:47.066Z,96.02
2018-01-15T00:18:14.605Z,96.03
2018-01-15T00:20:42.134Z,95.79
2018-01-15T00:23:09.660Z,95.98
2018-01-15T00:25:37.194Z,95.82
2018-01-15T00:28:04.723Z,95.73
2018-01-15T00:30:32.279Z,95.53
2018-01-15T00:32:59.818Z,95.53
2018-01-15T00:35:27.330Z,95.49
2018-01-15T00:37:54.861Z,95.50
2018-01-15T00:40:22.382Z,95.54
2018-01-15T00:42:49.943Z,95.71
2018-01-15T00:45:17.466Z,95.65
2018-01-15T00:47:45.020Z,95.52
2018-01-15T00:50:12.575Z,95.25
2018-01-15T00:52:40.120Z,95.27
2018-01-15T00:55:07.684Z,95.35
2018-01-15T00:57:35.247Z,95.26
2018-01-15T01:00:02.774Z,95.28
2018-01-15T01:02:30.334Z,95.10
2018-01-15T01:04:57.838Z,94.94
2018-01-15T01:07:25.382Z,95.12
2018-01-15T01:09:52.922Z,95.29
2018-01-15T01:12:20.433Z,95.31
2018-01-15T01:14:47.970Z,95.09
2018-01-15T01:17:15.482Z,95.04
2018-01-15T01:19:43.344Z,95.18
2018-01-15T01:22:10.881Z,95.27
2018-01-15T01:24:38.435Z,95.07
2018-01-15T01:27:05.950Z,95.00
2018-01-15T01:29:33.458Z,94.91
2018-01-15T01:32:00.983Z,94.94
2018-01-15T01:34:28.494Z,94.72
2018-01-15T01:36:56.031Z,94.63
2018-01-15T01:39:23.591Z,94.51
2018-01-15T01:41:51.110Z,94.47
2018-01-15T01:44:18.655Z,94.59
2018-01-15T01:46:46.188Z,94.51
2018-01-15T01:49:13.700Z,94.41
2018-01-15T01:51:41.236Z,94.44
2018-01-15T01:54:08.806Z,94.25
2018-01-15T01:56:36.315Z,94.13
2018-01-15T01:59:03.830Z,93.81
2018-01-15T02:01:31.355Z,93.61
2018-01-15T02:03:58.875Z,93.67
2018-01-15T02:06:26.413Z,93.66
2018-01-15T02:08:53.946Z,93.54
2018-01-15T02:11:21.471Z,93.22
2018-01-15T02:13:48.979Z,93.19
2018-01-15T02:16:16.512Z,92.95
2018-01-15T02:18:44.848Z,93.05
2018-01-15T02:21:12.374Z,93.07
2018-01-15T02:23:39.894Z,92.83
2018-01-15T02:26:07.403Z,92.88
2018-01-15T02:28:34.937Z,92.52
2018-01-15T02:31:02.447Z,92.54
2018-01-15T02:33:29.974Z,91.90
2018-01-15T02:35:57.487Z,91.94
2018-01-15T02:38:25.025Z,91.39
2018-01-15T02:40:52.550Z,91.69
2018-01-15T02:43:20.059Z,91.39
2018-01-15T02:45:47.580Z,91.13
2018-01-15T02:48:15.096Z,90.93
2018-01-15T02:50:42.595Z,91.31
2018-01-15T02:53:10.106Z,90.89
2018-01-15T02:55:37.606Z,90.38
2018-01-15T02:58:05.103Z,90.14
2018-01-15T03:00:32.658Z,90.11
2018-01-15T03:03:00.162Z,89.71
2018-01-15T03:05:27.662Z,89.34
2018-01-15T03:07:55.172Z,89.40
2018-01-15T03:10:22.674Z,89.87
2018-01-15T03:12:50.218Z,89.51
2018-01-15T03:15:17.750Z,89.45
2018-01-15T03:17:45.288Z,89.56
2018-01-15T03:20:12.802Z,89.39
2018-01-15T03:22:40.326Z,89.54
2018-01-15T03:25:07.865Z,89.43
2018-01-15T03:27:35.390Z,89.05
2018-01-15T03:30:02.931Z,89.08
2018-01-15T03:32:30.483Z,88.80
2018-01-15T03:34:58.050Z,88.83
2018-01-15T03:37:25.586Z,89.21
2018-01-15T03:39:53.120Z,88.77
2018-01-15T03:42:20.676Z,88.88
2018-01-15T03:44:48.923Z,88.49
2018-01-15T03:47:16.438Z,88.91
2018-01-15T03:49:43.971Z,89.14
2018-01-15T03:52:11.473Z,88.83
2018-01-15T03:54:39.002Z,88.47
2018-01-15T03:57:06.547Z,88.64
2018-01-15T03:59:34.085Z,89.12
2018-01-15T04:02:01.588Z,88.99
2018-01-15T04:04:29.095Z,89.39
2018-01-15T04:06:56.618Z,89.58
2018-01-15T04:09:24.117Z,89.47
2018-01-15T04:11:51.619Z,89.45
2018-01-15T04:14:19.162Z,89.56
2018-01-15T04:16:46.674Z,89.58
2018-01-15T04:19:14.186Z,89.64
2018-01-15T04:21:41.686Z,89.62
2018-01-15T04:24:09.183Z,89.66
2018-01-15T04:26:36.714Z,89.72
2018-01-15T04:29:04.219Z,89.53
2018-01-15T04:31:31.763Z,89.46
2018-01-15T04:33:59.306Z,89.50
2018-01-15T04:36:26.830Z,89.99
2018-01-15T04:38:54.346Z,89.66
2018-01-15T04:41:21.908Z,89.44
2018-01-15T04:43:49.422Z,89.88
2018-01-15T04:46:16.926Z,89.64
2018-01-15T04:48:44.442Z,89.73
2018-01-15T04:51:11.962Z,89.71
2018-01-15T04:53:39.493Z,89.80
2018-01-15T04:56:07.030Z,89.98
2018-01-15T04:58:34.551Z,89.67
2018-01-15T05:01:02.080Z,89.72
2018-01-15T05:03:29.590Z,89.84
2018-01-15T05:05:57.107Z,89.73
2018-01-15T05:08:24.619Z,89.45
2018-01-15T05:10:52.126Z,89.44
2018-01-15T05:13:19.637Z,89.19
2018-01-15T05:15:47.193Z,89.17
2018-01-15T05:18:14.709Z,89.20
2018-01-15T05:20:42.228Z,89.12
2018-01-15T05:23:09.766Z,89.33
2018-01-15T05:25:37.284Z,89.41
2018-01-15T05:28:04.820Z,89.32
2018-01-15T05:30:32.343Z,89.29
2018-01-15T05:32:59.854Z,89.35
2018-01-15T05:35:27.370Z,89.40
2018-01-15T05:37:54.890Z,89.10
2018-01-15T05:40:22.408Z,89.07
2018-01-15T05:42:49.944Z,89.00
2018-01-15T05:45:17.503Z,89.31
2018-01-15T05:47:45.010Z,89.22
2018-01-15T05:50:12.543Z,89.22
2018-01-15T05:52:40.074Z,89.26
2018-01-15T05:55:07.584Z,89.21
2018-01-15T05:57:35.106Z,89.20
2018-01-15T06:00:02.610Z,89.33
2018-01-15T06:02:30.135Z,89.20
2018-01-15T06:04:58.378Z,89.19
2018-01-15T06:07:25.886Z,89.47
2018-01-15T06:09:53.771Z,89.46
2018-01-15T06:12:21.310Z,89.65
2018-01-15T06:14:48.826Z,89.51
2018-01-15T06:17:16.688Z,89.29
2018-01-15T06:19:44.198Z,89.45
2018-01-15T06:22:11.723Z,89.57
2018-01-15T06:24:39.262Z,89.56
2018-01-15T06:27:06.775Z,89.73
2018-01-15T06:29:34.318Z,90.86
2018-01-15T06:32:01.846Z,89.34
2018-01-15T06:34:29.372Z,90.08
2018-01-15T06:36:57.511Z,90.21
2018-01-15T06:39:25.134Z,89.43
2018-01-15T06:41:52.655Z,89.59
2018-01-15T06:44:20.249Z,89.65
2018-01-15T06:46:47.795Z,89.76
2018-01-15T06:49:15.290Z,89.81
2018-01-15T06:51:44.400Z,90.73
2018-01-15T06:54:11.920Z,90.41
2018-01-15T06:56:40.361Z,90.24
2018-01-15T06:59:08.055Z,90.09
2018-01-15T07:01:35.623Z,89.82
2018-01-15T07:04:05.121Z,89.77
2018-01-15T07:06:32.686Z,89.81
2018-01-15T07:09:00.266Z,90.14
2018-01-15T07:11:27.799Z,89.85
2018-01-15T07:13:55.307Z,89.88
2018-01-15T07:16:22.841Z,90.15
2018-01-15T07:18:50.408Z,90.08
2018-01-15T07:21:17.930Z,90.16
2018-01-15T07:23:45.489Z,90.18
2018-01-15T07:26:13.048Z,89.97
2018-01-15T07:28:40.582Z,90.12
2018-01-15T07:31:08.143Z,90.32
2018-01-15T07:33:35.700Z,90.31
2018-01-15T07:36:03.218Z,90.45
2018-01-15T07:38:30.741Z,90.60
2018-01-15T07:40:58.269Z,90.58
2018-01-15T07:43:25.782Z,91.00
2018-01-15T07:45:53.338Z,90.41
2018-01-15T07:48:20.830Z,90.37
2018-01-15T07:50:48.387Z,90.22
2018-01-15T07:53:15.934Z,90.12
2018-01-15T07:55:44.268Z,89.83
2018-01-15T07:58:11.775Z,89.73
2018-01-15T08:00:39.280Z,89.40
2018-01-15T08:03:06.809Z,88.49
2018-01-15T08:05:34.322Z,87.18
2018-01-15T08:08:01.844Z,86.61
2018-01-15T08:10:29.346Z,85.38
2018-01-15T08:12:56.880Z,84.69
2018-01-15T08:15:24.383Z,84.46
2018-01-15T08:17:51.915Z,83.18
2018-01-15T08:20:19.436Z,81.75
2018-01-15T08:22:46.930Z,82.50
2018-01-15T08:25:14.452Z,81.37
2018-01-15T08:27:41.980Z,80.93
2018-01-15T08:30:09.509Z,82.26
2018-01-15T08:32:37.054Z,82.26
2018-01-15T08:35:04.579Z,81.79
2018-01-15T08:37:32.086Z,80.67
2018-01-15T08:39:59.598Z,81.19
2018-01-15T08:42:27.127Z,82.42
2018-01-15T08:44:54.654Z,83.26
2018-01-15T08:47:22.163Z,84.25
2018-01-15T08:49:49.689Z,84.89
2018-01-15T08:52:17.199Z,85.50
2018-01-15T08:54:44.721Z,85.41
2018-01-15T08:57:12.243Z,85.62
2018-01-15T08:59:39.774Z,85.54
2018-01-15T09:02:07.290Z,85.85
2018-01-15T09:04:34.794Z,85.74
2018-01-15T09:07:02.305Z,85.64
2018-01-15T09:09:29.819Z,86.28
2018-01-15T09:11:57.382Z,85.54
2018-01-15T09:14:25.595Z,86.48
2018-01-15T09:16:53.098Z,85.35
2018-01-15T09:19:20.610Z,85.19
2018-01-15T09:21:48.114Z,85.17
2018-01-15T09:24:15.640Z,85.16
2018-01-15T09:26:43.154Z,85.51
2018-01-15T09:29:11.007Z,85.45
2018-01-15T09:31:38.519Z,85.47
2018-01-15T09:34:06.031Z,85.58
2018-01-15T09:36:33.542Z,85.65
2018-01-15T09:39:01.046Z,85.83
2018-01-15T09:41:28.618Z,86.06
2018-01-15T09:43:56.134Z,86.44
2018-01-15T09:46:23.651Z,86.54
2018-01-15T09:48:51.182Z,86.30
2018-01-15T09:51:18.695Z,86.63
2018-01-15T09:53:46.204Z,86.92
2018-01-15T09:56:13.717Z,86.50
2018-01-15T09:58:41.237Z,85.66
2018-01-15T10:01:08.728Z,84.54
2018-01-15T10:03:36.228Z,82.69
2018-01-15T10:06:03.735Z,79.38
2018-01-15T10:08:31.243Z,79.42
2018-01-15T10:10:58.751Z,78.87
2018-01-15T10:13:26.246Z,79.71
2018-01-15T10:15:53.750Z,80.55
2018-01-15T10:18:21.278Z,80.44
2018-01-15T10:20:48.808Z,79.89
2018-01-15T10:23:16.338Z,80.19
2018-01-15T10:25:43.851Z,80.05
2018-01-15T10:28:11.385Z,80.46
2018-01-15T10:30:38.911Z,80.48
2018-01-15T10:33:06.431Z,80.95
2018-01-15T10:35:33.990Z,81.05
2018-01-15T10:38:02.358Z,80.96
2018-01-15T10:40:29.865Z,81.22
2018-01-15T10:42:57.368Z,80.85
2018-01-15T10:45:24.875Z,81.43
2018-01-15T10:47:52.368Z,80.84
2018-01-15T10:50:19.882Z,80.44
2018-01-15T10:52:47.415Z,79.80
2018-01-15T10:55:14.946Z,79.74
2018-01-15T10:57:42.481Z,79.39
2018-01-15T11:00:09.994Z,79.42
2018-01-15T11:02:37.539Z,79.87
2018-01-15T11:05:05.082Z,80.26
2018-01-15T11:07:32.606Z,80.76
2018-01-15T11:10:00.122Z,81.38
2018-01-15T11:12:27.787Z,81.27
2018-01-15T11:14:55.324Z,81.17
2018-01-15T11:17:22.853Z,81.69
2018-01-15T11:19:50.391Z,80.46
2018-01-15T11:22:17.906Z,80.17
2018-01-15T11:24:45.410Z,80.75
2018-01-15T11:27:12.938Z,80.01
2018-01-15T11:29:40.449Z,81.05
2018-01-15T11:32:08.038Z,81.13
2018-01-15T11:34:36.085Z,80.67
2018-01-15T11:37:03.599Z,81.29
2018-01-15T11:39:31.126Z,81.11
2018-01-15T11:41:58.677Z,81.69
2018-01-15T11:44:26.177Z,81.33
2018-01-15T11:46:53.688Z,82.23
2018-01-15T11:49:21.193Z,81.79
2018-01-15T11:51:48.723Z,82.79
2018-01-15T11:54:16.277Z,82.26
2018-01-15T11:56:43.804Z,83.14
2018-01-15T11:59:11.308Z,81.67
2018-01-15T12:01:38.829Z,81.31
2018-01-15T12:04:06.342Z,80.87
2018-01-15T12:06:33.901Z,80.53
2018-01-15T12:09:01.428Z,80.87
2018-01-15T12:11:28.930Z,80.25
2018-01-15T12:13:56.446Z,81.10
2018-01-15T12:16:23.942Z,81.52
2018-01-15T12:18:51.466Z,81.21
2018-01-15T12:21:18.962Z,81.48
2018-01-15T12:23:47.454Z,81.54
2018-01-15T12:26:14.986Z,81.75
2018-01-15T12:28:42.604Z,82.38
2018-01-15T12:31:10.128Z,82.74
2018-01-15T12:33:37.631Z,82.29
2018-01-15T12:36:05.142Z,82.08
2018-01-15T12:38:32.670Z,83.04
2018-01-15T12:41:00.195Z,82.96
2018-01-15T12:43:27.720Z,83.53
2018-01-15T12:45:55.254Z,82.19
2018-01-15T12:48:22.849Z,82.43
2018-01-15T12:50:50.395Z,83.07
2018-01-15T12:53:17.911Z,83.39
2018-01-15T12:55:45.478Z,82.67
2018-01-15T12:58:12.997Z,83.71
2018-01-15T13:00:40.541Z,83.34
2018-01-15T13:03:08.043Z,83.44
2018-01-15T13:05:55.258Z,83.90
2018-01-15T13:08:34.802Z,83.92
2018-01-15T13:11:02.338Z,83.72
2018-01-15T13:13:29.842Z,84.78
2018-01-15T13:15:57.355Z,83.82
2018-01-15T13:18:24.880Z,84.46
2018-01-15T13:20:52.398Z,84.37
2018-01-15T13:23:19.939Z,84.19
2018-01-15T13:25:47.458Z,84.55
2018-01-15T13:28:14.966Z,84.04
2018-01-15T13:30:42.573Z,84.17
2018-01-15T13:33:10.078Z,84.39
2018-01-15T13:35:37.599Z,84.66
2018-01-15T13:38:05.122Z,83.99
2018-01-15T13:40:32.654Z,83.80
2018-01-15T13:43:00.159Z,83.39
2018-01-15T13:45:27.670Z,83.34
2018-01-15T13:47:55.190Z,83.72
2018-01-15T13:50:22.685Z,82.87
2018-01-15T13:52:50.208Z,83.13
2018-01-15T13:55:17.711Z,82.79
2018-01-15T13:57:45.236Z,83.21
2018-01-15T14:00:12.734Z,83.67
2018-01-15T14:02:40.250Z,84.12
2018-01-15T14:05:07.762Z,83.61
2018-01-15T14:07:35.266Z,83.62
2018-01-15T14:10:02.767Z,83.67
2018-01-15T14:12:30.301Z,83.76
2018-01-15T14:14:57.802Z,83.59
2018-01-15T14:17:25.324Z,83.91
2018-01-15T14:19:52.839Z,84.63
2018-01-15T14:22:20.343Z,84.07
2018-01-15T14:24:47.852Z,84.35
2018-01-15T14:27:15.343Z,84.41
2018-01-15T14:29:43.414Z,84.66
2018-01-15T14:32:10.919Z,84.68
2018-01-15T14:34:38.437Z,84.65
2018-01-15T14:37:05.955Z,84.75
2018-01-15T14:39:33.454Z,84.77
2018-01-15T14:42:00.995Z,84.97
2018-01-15T14:44:28.514Z,85.15
2018-01-15T14:46:56.039Z,84.94
2018-01-15T14:49:24.535Z,85.42
2018-01-15T14:51:52.080Z,85.15
2018-01-15T14:54:19.613Z,84.97
2018-01-15T14:56:47.371Z,85.24
2018-01-15T14:59:14.881Z,85.33
2018-01-15T15:01:42.406Z,85.61
2018-01-15T15:04:09.939Z,85.79
2018-01-15T15:06:37.456Z,85.82
2018-01-15T15:09:04.978Z,86.02
2018-01-15T15:11:32.479Z,86.12
2018-01-15T15:13:59.999Z,86.26
2018-01-15T15:16:27.502Z,86.59
2018-01-15T15:18:55.006Z,86.39
2018-01-15T15:21:22.539Z,86.57
2018-01-15T15:23:50.058Z,86.69
2018-01-15T15:26:17.588Z,86.84
2018-01-15T15:28:45.093Z,86.87
2018-01-15T15:31:12.606Z,86.87
2018-01-15T15:33:40.121Z,86.82
2018-01-15T15:36:07.646Z,86.79
2018-01-15T15:38:35.147Z,86.71
2018-01-15T15:41:02.631Z,87.09
2018-01-15T15:43:30.114Z,86.48
2018-01-15T15:45:58.166Z,86.54
2018-01-15T15:48:25.733Z,86.70
2018-01-15T15:50:53.240Z,86.83
2018-01-15T15:53:20.778Z,87.21
2018-01-15T15:55:48.286Z,86.65
2018-01-15T15:58:15.794Z,87.09
2018-01-15T16:00:43.310Z,87.16
2018-01-15T16:03:10.810Z,86.69
2018-01-15T16:05:38.322Z,86.62
2018-01-15T16:08:05.842Z,86.57
2018-01-15T16:10:33.341Z,87.21
2018-01-15T16:13:00.846Z,87.54
2018-01-15T16:15:28.359Z,87.01
2018-01-15T16:17:55.865Z,87.03
2018-01-15T16:20:23.370Z,87.83
2018-01-15T16:23:00.567Z,87.79
2018-01-15T16:25:28.112Z,87.85
2018-01-15T16:27:55.630Z,87.47
2018-01-15T16:30:23.258Z,87.45
2018-01-15T16:32:50.779Z,87.37
2018-01-15T16:35:18.305Z,86.90
2018-01-15T16:37:45.940Z,86.95
2018-01-15T16:40:13.470Z,86.63
2018-01-15T16:42:41.318Z,86.59
2018-01-15T16:45:09.543Z,86.19
2018-01-15T16:47:37.153Z,86.34
2018-01-15T16:50:10.187Z,86.24
2018-01-15T16:52:37.761Z,85.10
2018-01-15T16:55:05.283Z,85.43
2018-01-15T16:57:32.812Z,85.12
2018-01-15T17:00:01.698Z,84.53
2018-01-15T17:02:29.213Z,84.82
2018-01-15T17:04:56.734Z,84.17
2018-01-15T17:07:31.806Z,84.96
2018-01-15T17:09:59.329Z,84.92
2018-01-15T17:12:26.861Z,85.31
2018-01-15T17:15:13.554Z,84.30
2018-01-15T17:25:59.914Z,82.99
2018-01-15T17:28:27.434Z,82.48
2018-01-15T17:30:56.749Z,81.82
2018-01-15T17:33:24.274Z,81.42
2018-01-15T17:35:51.777Z,81.78
2018-01-15T17:38:19.279Z,82.02
2018-01-15T17:40:46.774Z,82.01
2018-01-15T17:43:14.294Z,81.45
2018-01-15T17:45:41.794Z,81.44
2018-01-15T17:48:09.322Z,81.58
2018-01-15T17:50:36.827Z,81.41
2018-01-15T17:53:04.329Z,81.56
2018-01-15T17:55:31.827Z,81.48
2018-01-15T17:57:59.338Z,81.12
2018-01-15T18:00:26.846Z,81.37
2018-01-15T18:03:13.973Z,81.06
2018-01-15T18:05:41.507Z,81.09
2018-01-15T18:08:09.006Z,80.54
2018-01-15T18:10:36.531Z,80.87
2018-01-15T18:13:04.043Z,80.77
2018-01-15T18:15:31.587Z,81.21
2018-01-15T18:17:59.113Z,81.71
2018-01-15T18:20:26.636Z,81.78
2018-01-15T18:22:54.142Z,81.77
2018-01-15T18:25:21.670Z,81.66
2018-01-15T18:27:49.174Z,82.24
2018-01-15T18:30:16.688Z,81.61
2018-01-15T18:32:44.211Z,81.55
2018-01-15T18:35:11.718Z,81.71
2018-01-15T18:37:39.214Z,81.77
2018-01-15T18:40:06.738Z,81.16
2018-01-15T18:42:34.234Z,81.18
2018-01-15T18:45:02.213Z,80.96
2018-01-15T18:47:29.718Z,81.44
2018-01-15T18:49:57.256Z,82.11
2018-01-15T18:52:24.750Z,83.17
2018-01-15T18:54:52.306Z,83.89
2018-01-15T18:57:19.822Z,84.03
2018-01-15T18:59:47.331Z,84.23
2018-01-15T19:02:14.866Z,84.72
2018-01-15T19:04:42.599Z,84.95
2018-01-15T19:07:10.162Z,85.47
2018-01-15T19:09:37.691Z,85.62
2018-01-15T19:12:05.226Z,85.99
2018-01-15T19:14:32.726Z,86.27
2018-01-15T19:17:00.246Z,86.15
2018-01-15T19:19:27.780Z,85.94
2018-01-15T19:21:55.303Z,86.30
2018-01-15T19:24:22.830Z,86.25
2018-01-15T19:26:50.389Z,86.33
2018-01-15T19:29:17.904Z,86.96
2018-01-15T19:31:45.509Z,86.98
2018-01-15T19:34:14.510Z,87.28
2018-01-15T19:36:47.511Z,86.64
2018-01-15T19:39:24.942Z,86.70
2018-01-15T19:41:52.930Z,87.36
2018-01-15T19:44:25.965Z,87.29
2018-01-15T19:46:59.138Z,87.63
2018-01-15T19:49:32.198Z,87.18
2018-01-15T19:52:05.124Z,87.82
2018-01-15T19:54:38.098Z,87.41
2018-01-15T19:57:11.943Z,87.99
2018-01-15T19:59:45.013Z,88.48
2018-01-15T20:02:18.035Z,88.32
2018-01-15T20:04:51.206Z,88.53
2018-01-15T20:07:24.226Z,88.66
2018-01-15T20:09:57.229Z,88.91
2018-01-15T20:12:25.391Z,88.66
2018-01-15T20:14:52.895Z,88.59
2018-01-15T20:17:20.412Z,89.11
2018-01-15T20:19:47.928Z,88.76
2018-01-15T20:22:15.430Z,88.72
2018-01-15T20:24:42.950Z,88.82
2018-01-15T20:27:10.864Z,88.98
2018-01-15T20:29:38.459Z,88.70
2018-01-15T20:32:05.988Z,88.73
2018-01-15T20:34:33.495Z,88.70
2018-01-15T20:37:01.020Z,89.11
2018-01-15T20:39:28.518Z,88.91
2018-01-15T20:41:56.026Z,89.45
2018-01-15T20:44:23.548Z,89.51
2018-01-15T20:46:51.074Z,89.44
2018-01-15T20:49:18.570Z,90.05
2018-01-15T20:51:46.098Z,89.81
2018-01-15T20:54:13.598Z,89.98
2018-01-15T20:56:41.213Z,90.88
2018-01-15T20:59:08.817Z,90.98
2018-01-15T21:01:36.345Z,90.57
2018-01-15T21:04:03.870Z,90.60
2018-01-15T21:06:31.599Z,90.66
2018-01-15T21:08:59.113Z,90.90
2018-01-15T21:11:27.146Z,90.22
2018-01-15T21:13:54.655Z,90.32
2018-01-15T21:16:22.178Z,90.48
2018-01-15T21:18:49.679Z,90.56
2018-01-15T21:21:17.228Z,90.00
2018-01-15T21:23:47.530Z,90.66
2018-01-15T21:26:15.066Z,90.42
2018-01-15T21:28:42.708Z,90.58
2018-01-15T21:31:10.278Z,90.77
2018-01-15T21:33:37.780Z,91.58
2018-01-15T21:36:05.310Z,90.98
2018-01-15T21:38:32.859Z,92.17
2018-01-15T21:41:00.353Z,91.80
2018-01-15T21:43:27.907Z,91.44
2018-01-15T21:45:55.438Z,92.43
2018-01-15T21:48:23.383Z,91.83
2018-01-15T21:50:50.891Z,91.36
2018-01-15T21:53:18.379Z,90.06
2018-01-15T21:55:45.891Z,88.66
2018-01-15T21:58:13.398Z,88.24
2018-01-15T22:00:40.911Z,88.12
2018-01-15T22:03:08.425Z,87.77
2018-01-15T22:05:35.933Z,87.88
2018-01-15T22:08:03.428Z,87.45
2018-01-15T22:10:30.914Z,88.03
2018-01-15T22:12:58.404Z,87.95
2018-01-15T22:15:25.895Z,88.76
2018-01-15T22:17:53.386Z,88.05
2018-01-15T22:20:21.644Z,88.26
2018-01-15T22:22:49.159Z,87.24
2018-01-15T22:25:16.706Z,87.81
2018-01-15T22:27:44.190Z,87.81
2018-01-15T22:30:11.685Z,87.29
2018-01-15T22:32:39.204Z,87.53
2018-01-15T22:35:06.728Z,87.10
2018-01-15T22:37:34.234Z,86.67
2018-01-15T22:40:01.729Z,86.29
2018-01-15T22:42:29.234Z,85.98
2018-01-15T22:44:56.745Z,86.65
2018-01-15T22:47:24.257Z,86.29
2018-01-15T22:49:51.762Z,86.01
2018-01-15T22:52:19.256Z,86.03
2018-01-15T22:54:46.774Z,86.52
2018-01-15T22:57:14.263Z,86.31
2018-01-15T22:59:41.758Z,86.58
2018-01-15T23:02:09.275Z,85.94
2018-01-15T23:04:39.566Z,86.41
2018-01-15T23:07:07.059Z,86.02
2018-01-15T23:09:34.552Z,85.94
2018-01-15T23:12:02.042Z,86.03
2018-01-15T23:14:29.536Z,86.54
2018-01-15T23:16:57.030Z,86.76
2018-01-15T23:19:24.527Z,86.86
2018-01-15T23:21:52.037Z,87.67
2018-01-15T23:24:19.522Z,87.94
2018-01-15T23:26:47.019Z,89.14
2018-01-15T23:29:14.512Z,87.97
2018-01-15T23:31:42.017Z,88.89
2018-01-15T23:34:09.518Z,88.87
2018-01-15T23:36:37.039Z,89.36
2018-01-15T23:42:09.986Z,90.34
2018-01-15T23:44:37.479Z,90.17
2018-01-15T23:47:04.970Z,89.51
2018-01-15T23:49:32.462Z,89.66
2018-01-15T23:51:59.962Z,88.60
2018-01-15T23:54:33.298Z,88.34
2018-01-15T23:57:00.855Z,89.02
2018-01-15T23:59:28.374Z,89.01
